createdAt,value
2018-11-07T00:00:32.495Z,0
2018-11-07T00:01:42.595Z,0
2018-11-07T00:02:53.221Z,0
2018-11-07T00:04:03.050Z,0
2018-11-07T00:05:12.919Z,0
2018-11-07T00:06:22.748Z,0
2018-11-07T00:07:32.311Z,0
2018-11-07T00:08:42.660Z,0
2018-11-07T00:09:52.525Z,0
2018-11-07T00:11:02.718Z,0
2018-11-07T00:12:12.536Z,0
2018-11-07T00:13:22.659Z,0
2018-11-07T00:14:32.512Z,0
2018-11-07T00:15:42.855Z,0
2018-11-07T00:16:52.475Z,0
2018-11-07T00:18:02.545Z,0
2018-11-07T00:19:13.081Z,0
2018-11-07T00:20:23.474Z,0
2018-11-07T00:21:33.299Z,0
2018-11-07T00:22:43.389Z,0
2018-11-07T00:23:53.555Z,0
2018-11-07T00:25:03.379Z,0
2018-11-07T00:26:13.813Z,0
2018-11-07T00:27:23.749Z,0
2018-11-07T00:28:33.562Z,0
2018-11-07T00:29:43.714Z,0
2018-11-07T00:30:53.799Z,0
2018-11-07T00:32:03.892Z,0
2018-11-07T00:33:13.709Z,0
2018-11-07T00:34:23.605Z,0
2018-11-07T00:35:33.448Z,0
2018-11-07T00:36:43.001Z,0
2018-11-07T00:37:53.085Z,0
2018-11-07T00:39:02.932Z,0
2018-11-07T00:40:12.563Z,0
2018-11-07T00:41:22.380Z,0
2018-11-07T00:42:32.489Z,0
2018-11-07T00:43:42.095Z,0
2018-11-07T00:44:51.948Z,0
2018-11-07T00:46:02.081Z,0
2018-11-07T00:47:12.169Z,0
2018-11-07T00:48:21.708Z,0
2018-11-07T00:49:31.267Z,0
2018-11-07T00:50:41.128Z,0
2018-11-07T00:51:51.407Z,0
2018-11-07T00:53:01.233Z,0
2018-11-07T00:54:10.784Z,0
2018-11-07T00:55:20.849Z,0
2018-11-07T00:56:30.928Z,0
2018-11-07T00:57:41.007Z,0
2018-11-07T00:58:51.092Z,0
2018-11-07T01:00:01.560Z,0
2018-11-07T01:01:11.394Z,0
2018-11-07T01:02:21.482Z,0
2018-11-07T01:03:31.624Z,0
2018-11-07T01:04:41.727Z,0
2018-11-07T01:05:51.872Z,0
2018-11-07T01:07:01.676Z,0
2018-11-07T01:08:11.548Z,0
2018-11-07T01:09:22.038Z,0
2018-11-07T01:10:32.897Z,0
2018-11-07T01:11:42.979Z,0
2018-11-07T01:12:52.800Z,0
2018-11-07T01:14:03.323Z,0
2018-11-07T01:15:13.509Z,0
2018-11-07T01:16:23.092Z,0
2018-11-07T01:17:33.386Z,0
2018-11-07T01:18:43.697Z,0
2018-11-07T01:19:53.769Z,0
2018-11-07T01:21:03.432Z,0
2018-11-07T01:22:13.757Z,0
2018-11-07T01:23:23.928Z,0
2018-11-07T01:24:33.492Z,0
2018-11-07T01:25:43.024Z,0
2018-11-07T01:26:52.840Z,0
2018-11-07T01:28:05.103Z,0
2018-11-07T01:29:15.043Z,0
2018-11-07T01:30:24.889Z,0
2018-11-07T01:31:34.442Z,0
2018-11-07T01:32:44.591Z,0
2018-11-07T01:33:54.661Z,0
2018-11-07T01:35:04.242Z,0
2018-11-07T01:36:14.324Z,0
2018-11-07T01:37:24.424Z,0
2018-11-07T01:38:34.281Z,0
2018-11-07T01:39:44.345Z,0
2018-11-07T01:40:54.159Z,0
2018-11-07T01:42:04.347Z,0
2018-11-07T01:43:14.180Z,0
2018-11-07T01:44:23.984Z,0
2018-11-07T01:45:33.801Z,0
2018-11-07T01:46:43.907Z,0
2018-11-07T01:47:54.184Z,0
2018-11-07T01:49:04.254Z,0
2018-11-07T01:50:14.118Z,0
2018-11-07T01:51:24.203Z,0
2018-11-07T01:52:34.009Z,0
2018-11-07T01:53:43.552Z,0
2018-11-07T01:54:53.627Z,0
2018-11-07T01:56:03.766Z,0
2018-11-07T01:57:13.326Z,0
2018-11-07T01:58:22.633Z,0
2018-11-07T01:59:32.914Z,0
2018-11-07T02:00:42.742Z,0
2018-11-07T02:01:52.855Z,0
2018-11-07T02:03:03.650Z,0
2018-11-07T02:04:13.499Z,0
2018-11-07T02:05:23.310Z,0
2018-11-07T02:06:33.388Z,0
2018-11-07T02:07:43.480Z,0
2018-11-07T02:08:53.283Z,0
2018-11-07T02:10:04.759Z,0
2018-11-07T02:11:14.314Z,0
2018-11-07T02:12:24.380Z,0
2018-11-07T02:13:34.464Z,0
2018-11-07T02:14:44.561Z,0
2018-11-07T02:15:54.690Z,0
2018-11-07T02:17:04.299Z,0
2018-11-07T02:18:14.376Z,0
2018-11-07T02:19:24.229Z,0
2018-11-07T02:20:34.328Z,0
2018-11-07T02:21:44.409Z,0
2018-11-07T02:22:54.243Z,0
2018-11-07T02:24:03.791Z,0
2018-11-07T02:25:28.526Z,0
2018-11-07T02:26:39.129Z,0
2018-11-07T02:27:48.653Z,0
2018-11-07T02:28:58.212Z,0
2018-11-07T02:30:10.191Z,0
2018-11-07T02:31:20.026Z,0
2018-11-07T02:32:30.141Z,0
2018-11-07T02:33:40.250Z,0
2018-11-07T02:34:50.335Z,0
2018-11-07T02:36:00.428Z,0
2018-11-07T02:37:11.700Z,0
2018-11-07T02:38:21.822Z,0
2018-11-07T02:39:31.850Z,0
2018-11-07T02:40:41.680Z,0
2018-11-07T02:41:51.492Z,0
2018-11-07T02:43:01.780Z,0
2018-11-07T02:44:11.861Z,0
2018-11-07T02:45:21.699Z,0
2018-11-07T02:46:31.561Z,0
2018-11-07T02:47:41.784Z,0
2018-11-07T02:49:07.633Z,0
2018-11-07T02:50:18.572Z,0
2018-11-07T02:51:28.405Z,0
2018-11-07T02:52:38.493Z,0
2018-11-07T02:53:48.055Z,0
2018-11-07T02:54:57.415Z,0
2018-11-07T02:56:09.329Z,0
2018-11-07T02:57:19.122Z,0
2018-11-07T02:58:28.696Z,0
2018-11-07T02:59:38.769Z,0
2018-11-07T03:00:48.405Z,0
2018-11-07T03:01:58.242Z,0
2018-11-07T03:34:47.227Z,0
2018-11-07T03:35:57.065Z,0
2018-11-07T03:37:06.679Z,0
2018-11-07T03:38:16.811Z,0
2018-11-07T03:39:26.413Z,0
2018-11-07T03:40:36.328Z,0
2018-11-07T03:41:46.127Z,0
2018-11-07T03:42:55.965Z,0
2018-11-07T03:44:05.951Z,0
2018-11-07T03:45:15.526Z,0
2018-11-07T03:46:25.373Z,0
2018-11-07T03:47:35.510Z,0
2018-11-07T03:48:45.652Z,0
2018-11-07T03:49:55.761Z,0
2018-11-07T03:51:05.352Z,0
2018-11-07T03:52:16.510Z,0
2018-11-07T03:53:27.144Z,0
2018-11-07T03:54:37.258Z,0
2018-11-07T03:55:46.836Z,0
2018-11-07T03:56:56.656Z,0
2018-11-07T03:58:08.080Z,0
2018-11-07T03:59:18.006Z,0
2018-11-07T04:00:28.073Z,0
2018-11-07T04:01:37.900Z,0
2018-11-07T04:02:47.726Z,0
2018-11-07T04:03:57.948Z,0
2018-11-07T04:05:07.784Z,0
2018-11-07T04:06:17.901Z,0
2018-11-07T04:07:27.785Z,0
2018-11-07T04:08:37.601Z,0
2018-11-07T04:09:47.442Z,0
2018-11-07T04:10:57.273Z,0
2018-11-07T04:12:07.861Z,0
2018-11-07T04:13:17.676Z,0
2018-11-07T04:14:27.494Z,0
2018-11-07T04:15:37.042Z,0
2018-11-07T04:16:46.851Z,0
2018-11-07T04:17:56.664Z,0
2018-11-07T04:19:06.207Z,0
2018-11-07T04:20:16.024Z,0
2018-11-07T04:21:26.095Z,0
2018-11-07T04:22:35.937Z,0
2018-11-07T04:23:46.110Z,0
2018-11-07T04:24:55.650Z,0
2018-11-07T04:26:05.488Z,0
2018-11-07T04:27:14.871Z,0
2018-11-07T04:28:24.172Z,0
2018-11-07T04:29:33.985Z,0
2018-11-07T04:30:43.817Z,0
2018-11-07T04:31:53.620Z,0
2018-11-07T04:33:04.790Z,0
2018-11-07T04:34:14.620Z,0
2018-11-07T04:35:24.432Z,0
2018-11-07T04:36:34.247Z,0
2018-11-07T04:37:44.328Z,0
2018-11-07T04:38:53.791Z,0
2018-11-07T04:40:03.751Z,0
2018-11-07T04:41:13.823Z,0
2018-11-07T04:42:23.917Z,0
2018-11-07T04:43:33.750Z,0
2018-11-07T04:44:43.961Z,0
2018-11-07T04:45:54.022Z,0
2018-11-07T04:47:03.577Z,0
2018-11-07T04:48:13.133Z,0
2018-11-07T04:49:23.218Z,0
2018-11-07T04:50:32.843Z,0
2018-11-07T04:51:42.916Z,0
2018-11-07T04:52:53.576Z,0
2018-11-07T04:54:02.863Z,0
2018-11-07T04:55:12.746Z,0
2018-11-07T04:56:22.669Z,0
2018-11-07T04:57:32.468Z,0
2018-11-07T04:58:42.020Z,0
2018-11-07T04:59:52.095Z,0
2018-11-07T05:01:01.931Z,0
2018-11-07T05:02:12.063Z,0
2018-11-07T05:03:22.137Z,0
2018-11-07T05:04:32.232Z,0
2018-11-07T05:05:42.517Z,0
2018-11-07T05:06:52.618Z,0
2018-11-07T05:08:02.506Z,0
2018-11-07T05:09:12.333Z,0
2018-11-07T05:10:21.913Z,0
2018-11-07T05:11:31.778Z,0
2018-11-07T05:12:41.826Z,0
2018-11-07T05:13:51.124Z,0
2018-11-07T05:15:01.374Z,0
2018-11-07T05:16:11.467Z,4
2018-11-07T05:17:21.555Z,0
2018-11-07T05:18:31.625Z,0
2018-11-07T05:19:41.971Z,4
2018-11-07T05:20:51.602Z,0
2018-11-07T05:22:01.699Z,4
2018-11-07T05:23:11.774Z,0
2018-11-07T05:24:21.841Z,4
2018-11-07T05:25:31.682Z,4
2018-11-07T05:26:41.756Z,4
2018-11-07T05:27:51.857Z,8
2018-11-07T05:29:01.675Z,8
2018-11-07T05:30:11.474Z,12
2018-11-07T05:31:21.525Z,12
2018-11-07T05:32:31.610Z,16
2018-11-07T05:33:41.303Z,16
2018-11-07T05:34:51.406Z,24
2018-11-07T05:36:00.961Z,28
2018-11-07T05:37:10.760Z,32
2018-11-07T05:38:20.559Z,40
2018-11-07T05:39:30.377Z,48
2018-11-07T05:40:40.220Z,52
2018-11-07T05:41:50.589Z,64
2018-11-07T05:43:00.712Z,72
2018-11-07T05:44:11.475Z,84
2018-11-07T05:45:21.297Z,92
2018-11-07T05:46:31.112Z,100
2018-11-07T05:47:41.006Z,108
2018-11-07T05:48:50.928Z,120
2018-11-07T05:50:02.061Z,132
2018-11-07T05:51:12.157Z,148
2018-11-07T05:52:21.769Z,164
2018-11-07T05:53:31.585Z,176
2018-11-07T05:54:41.544Z,196
2018-11-07T05:55:51.893Z,212
2018-11-07T05:57:01.721Z,232
2018-11-07T05:58:11.788Z,252
2018-11-07T05:59:21.597Z,272
2018-11-07T06:00:31.715Z,296
2018-11-07T06:01:41.779Z,316
2018-11-07T06:02:51.854Z,340
2018-11-07T06:04:01.682Z,364
2018-11-07T06:05:11.489Z,388
2018-11-07T06:06:21.051Z,416
2018-11-07T06:07:31.173Z,444
2018-11-07T06:08:41.237Z,472
2018-11-07T06:09:51.057Z,500
2018-11-07T06:11:00.601Z,532
2018-11-07T06:12:10.244Z,564
2018-11-07T06:13:20.366Z,600
2018-11-07T06:14:30.177Z,632
2018-11-07T06:15:39.989Z,664
2018-11-07T06:16:49.591Z,696
2018-11-07T06:17:59.742Z,720
2018-11-07T06:19:09.690Z,752
2018-11-07T06:20:19.286Z,784
2018-11-07T06:21:28.873Z,820
2018-11-07T06:22:38.963Z,848
2018-11-07T06:23:49.035Z,876
2018-11-07T06:24:59.626Z,908
2018-11-07T06:26:09.690Z,948
2018-11-07T06:27:19.514Z,980
2018-11-07T06:28:29.627Z,1016
2018-11-07T06:29:39.179Z,1052
2018-11-07T06:30:49.302Z,1088
2018-11-07T06:31:59.373Z,1124
2018-11-07T06:33:09.201Z,1144
2018-11-07T06:34:19.421Z,1160
2018-11-07T06:35:29.510Z,1164
2018-11-07T06:36:39.315Z,1164
2018-11-07T06:37:48.874Z,1136
2018-11-07T06:38:58.948Z,1108
2018-11-07T06:40:10.808Z,1116
2018-11-07T06:41:20.931Z,1112
2018-11-07T06:42:30.707Z,1084
2018-11-07T06:43:40.524Z,1076
2018-11-07T06:44:50.365Z,1116
2018-11-07T06:46:02.393Z,1204
2018-11-07T06:47:12.261Z,1148
2018-11-07T06:48:22.344Z,1108
2018-11-07T06:49:32.007Z,1108
2018-11-07T06:50:41.827Z,1120
2018-11-07T06:51:51.867Z,1128
2018-11-07T06:53:02.017Z,1140
2018-11-07T06:54:11.825Z,1160
2018-11-07T06:55:22.029Z,1180
2018-11-07T06:56:31.853Z,1200
2018-11-07T06:57:42.139Z,1232
2018-11-07T06:58:51.799Z,1268
2018-11-07T07:00:03.613Z,1320
2018-11-07T07:01:13.251Z,1388
2018-11-07T07:02:23.121Z,1468
2018-11-07T07:03:33.234Z,1588
2018-11-07T07:04:43.365Z,1660
2018-11-07T07:05:53.184Z,1584
2018-11-07T07:07:05.437Z,1524
2018-11-07T07:08:15.367Z,1504
2018-11-07T07:09:25.195Z,1492
2018-11-07T07:10:35.208Z,1484
2018-11-07T07:11:45.032Z,1476
2018-11-07T07:12:54.866Z,1480
2018-11-07T07:14:04.688Z,1496
2018-11-07T07:15:14.532Z,1512
2018-11-07T07:16:24.623Z,1536
2018-11-07T07:17:35.083Z,1556
2018-11-07T07:18:44.640Z,1572
2018-11-07T07:19:54.777Z,1588
2018-11-07T07:21:05.246Z,1608
2018-11-07T07:22:15.150Z,1632
2018-11-07T07:23:25.024Z,1652
2018-11-07T07:24:35.095Z,1664
2018-11-07T07:25:45.345Z,1672
2018-11-07T07:26:55.648Z,1684
2018-11-07T07:28:05.473Z,1688
2018-11-07T07:29:15.291Z,1696
2018-11-07T07:30:25.756Z,1700
2018-11-07T07:31:35.636Z,1712
2018-11-07T07:32:45.449Z,1716
2018-11-07T07:33:55.387Z,1724
2018-11-07T07:35:05.453Z,1740
2018-11-07T07:36:15.267Z,1760
2018-11-07T07:37:25.089Z,1776
2018-11-07T07:38:35.168Z,1800
2018-11-07T07:39:45.372Z,1820
2018-11-07T07:40:55.478Z,1836
2018-11-07T07:42:05.494Z,1856
2018-11-07T07:43:15.581Z,1872
2018-11-07T07:44:25.676Z,1912
2018-11-07T07:45:35.297Z,1960
2018-11-07T07:46:44.940Z,1992
2018-11-07T07:47:54.815Z,2008
2018-11-07T07:49:05.235Z,2032
2018-11-07T07:50:15.053Z,2048
2018-11-07T07:51:24.860Z,2060
2018-11-07T07:52:34.782Z,2060
2018-11-07T07:53:44.650Z,2072
2018-11-07T07:54:54.464Z,2088
2018-11-07T07:56:04.810Z,2112
2018-11-07T07:57:14.913Z,2132
2018-11-07T07:58:25.032Z,2152
2018-11-07T07:59:34.845Z,2168
2018-11-07T08:00:44.708Z,2192
2018-11-07T08:01:54.571Z,2216
2018-11-07T08:03:04.685Z,2248
2018-11-07T08:04:14.575Z,2256
2018-11-07T08:05:24.661Z,2284
2018-11-07T08:06:34.506Z,2304
2018-11-07T08:07:44.306Z,2316
2018-11-07T08:08:53.793Z,2328
2018-11-07T08:10:04.909Z,2344
2018-11-07T08:11:15.000Z,2356
2018-11-07T08:12:24.823Z,2372
2018-11-07T08:13:35.477Z,2392
2018-11-07T08:14:45.254Z,2416
2018-11-07T08:15:55.089Z,2432
2018-11-07T08:17:05.155Z,2456
2018-11-07T08:18:14.711Z,2480
2018-11-07T08:19:24.292Z,2512
2018-11-07T08:20:34.385Z,2536
2018-11-07T08:21:44.209Z,2564
2018-11-07T08:22:54.032Z,2608
2018-11-07T08:24:04.175Z,2644
2018-11-07T08:25:14.007Z,2688
2018-11-07T08:26:23.561Z,2728
2018-11-07T08:27:33.643Z,2764
2018-11-07T08:28:43.236Z,2792
2018-11-07T08:29:53.574Z,2836
2018-11-07T08:31:04.185Z,2876
2018-11-07T08:32:13.939Z,2916
2018-11-07T08:33:23.591Z,2948
2018-11-07T08:34:33.678Z,2988
2018-11-07T08:35:43.493Z,3028
2018-11-07T08:36:53.633Z,3056
2018-11-07T08:38:03.317Z,3088
2018-11-07T08:39:13.132Z,3116
2018-11-07T08:40:22.959Z,3152
2018-11-07T08:41:33.081Z,3180
2018-11-07T08:42:43.219Z,3208
2018-11-07T08:43:53.083Z,3236
2018-11-07T08:45:05.444Z,3268
2018-11-07T08:46:16.129Z,3296
2018-11-07T08:47:26.253Z,3332
2018-11-07T08:48:36.395Z,3368
2018-11-07T08:49:46.235Z,3400
2018-11-07T08:50:56.344Z,3440
2018-11-07T08:52:05.904Z,3480
2018-11-07T08:53:16.047Z,3532
2018-11-07T08:54:26.247Z,3592
2018-11-07T08:55:36.337Z,3648
2018-11-07T08:56:46.440Z,3712
2018-11-07T08:57:56.240Z,3748
2018-11-07T08:59:07.941Z,3836
2018-11-07T09:00:18.010Z,3888
2018-11-07T09:01:28.057Z,3964
2018-11-07T09:02:38.670Z,4092
2018-11-07T09:03:48.732Z,4232
2018-11-07T09:04:58.555Z,4304
2018-11-07T09:06:09.830Z,4560
2018-11-07T09:07:19.660Z,4728
2018-11-07T09:08:29.484Z,4780
2018-11-07T09:09:39.045Z,4796
2018-11-07T09:10:48.631Z,4668
2018-11-07T09:11:58.481Z,4700
2018-11-07T09:13:08.812Z,4692
2018-11-07T09:14:18.632Z,4712
2018-11-07T09:15:28.445Z,4704
2018-11-07T09:16:38.525Z,4700
2018-11-07T09:17:49.728Z,4576
2018-11-07T09:18:59.549Z,4436
2018-11-07T09:20:09.238Z,4292
2018-11-07T09:21:19.374Z,4144
2018-11-07T09:22:29.723Z,4064
2018-11-07T09:23:39.818Z,4060
2018-11-07T09:24:49.882Z,4332
2018-11-07T09:25:59.700Z,4336
2018-11-07T09:27:09.196Z,4312
2018-11-07T09:28:19.002Z,4256
2018-11-07T09:29:28.456Z,4212
2018-11-07T09:30:38.563Z,4120
2018-11-07T09:31:48.154Z,4184
2018-11-07T09:32:57.986Z,4412
2018-11-07T09:34:08.430Z,4808
2018-11-07T09:35:18.311Z,5156
2018-11-07T09:36:28.375Z,5512
2018-11-07T09:37:38.472Z,5956
2018-11-07T09:38:48.557Z,5660
2018-11-07T09:39:58.290Z,5432
2018-11-07T09:41:08.172Z,5320
2018-11-07T09:42:17.989Z,5656
2018-11-07T09:43:27.858Z,6224
2018-11-07T09:44:37.956Z,6464
2018-11-07T09:45:48.022Z,6516
2018-11-07T09:46:57.874Z,6528
2018-11-07T09:48:11.220Z,6444
2018-11-07T09:49:21.472Z,6136
2018-11-07T09:50:31.290Z,6400
2018-11-07T09:51:41.332Z,6360
2018-11-07T09:52:51.643Z,5696
2018-11-07T09:54:01.962Z,4892
2018-11-07T09:55:11.867Z,5100
2018-11-07T09:56:21.948Z,5804
2018-11-07T09:57:32.371Z,5544
2018-11-07T09:58:42.463Z,4992
2018-11-07T09:59:52.610Z,5552
2018-11-07T10:01:03.508Z,4732
2018-11-07T10:02:13.616Z,4632
2018-11-07T10:03:23.418Z,4500
2018-11-07T10:04:33.233Z,5084
2018-11-07T10:05:43.568Z,6292
2018-11-07T10:06:53.637Z,6604
2018-11-07T10:08:05.336Z,6716
2018-11-07T10:09:15.175Z,7152
2018-11-07T10:10:25.514Z,7020
2018-11-07T10:11:36.307Z,7104
2018-11-07T10:12:46.477Z,6632
2018-11-07T10:13:56.277Z,7196
2018-11-07T10:15:06.608Z,7220
2018-11-07T10:16:16.769Z,7300
2018-11-07T10:17:26.832Z,7264
2018-11-07T10:18:36.668Z,7252
2018-11-07T10:19:46.772Z,7236
2018-11-07T10:20:56.319Z,6980
2018-11-07T10:22:06.881Z,7116
2018-11-07T10:23:16.994Z,7376
2018-11-07T10:24:27.120Z,7300
2018-11-07T10:25:37.280Z,7276
2018-11-07T10:26:48.047Z,7312
2018-11-07T10:28:03.758Z,7120
2018-11-07T10:29:15.654Z,6804
2018-11-07T10:30:27.584Z,6708
2018-11-07T10:31:38.093Z,6884
2018-11-07T10:32:47.910Z,7316
2018-11-07T10:33:58.181Z,7128
2018-11-07T10:35:09.447Z,7336
2018-11-07T10:36:19.571Z,7256
2018-11-07T10:37:37.624Z,7328
2018-11-07T10:38:48.736Z,7224
2018-11-07T10:39:59.097Z,7248
2018-11-07T10:41:09.504Z,7256
2018-11-07T10:42:19.348Z,7480
2018-11-07T10:43:29.491Z,7256
2018-11-07T10:44:39.505Z,7252
2018-11-07T10:45:49.084Z,7300
2018-11-07T10:46:59.011Z,7456
2018-11-07T10:48:11.310Z,7148
2018-11-07T10:49:21.409Z,7504
2018-11-07T10:50:31.015Z,6892
2018-11-07T10:51:40.913Z,7036
2018-11-07T10:52:51.025Z,7540
2018-11-07T10:54:01.229Z,7268
2018-11-07T10:55:11.051Z,6940
2018-11-07T10:56:20.926Z,6932
2018-11-07T10:57:31.020Z,6748
2018-11-07T10:58:40.309Z,6556
2018-11-07T10:59:50.124Z,6272
2018-11-07T11:01:01.385Z,5916
2018-11-07T11:02:11.564Z,5560
2018-11-07T11:03:20.854Z,5940
2018-11-07T11:04:30.461Z,6404
2018-11-07T11:05:40.567Z,6404
2018-11-07T11:06:50.140Z,6464
2018-11-07T11:07:59.959Z,6756
2018-11-07T11:09:10.050Z,6616
2018-11-07T11:10:19.865Z,6276
2018-11-07T11:11:30.491Z,6644
2018-11-07T11:12:40.611Z,6672
2018-11-07T11:13:50.756Z,6940
2018-11-07T11:15:02.242Z,6932
2018-11-07T11:16:11.846Z,6816
2018-11-07T11:17:22.106Z,6564
2018-11-07T11:18:32.925Z,6588
2018-11-07T11:19:42.870Z,6840
2018-11-07T11:20:53.265Z,6612
2018-11-07T11:22:03.149Z,6404
2018-11-07T11:23:13.320Z,6472
2018-11-07T11:24:23.467Z,6436
2018-11-07T11:25:33.596Z,6176
2018-11-07T11:26:43.741Z,5940
2018-11-07T11:27:53.864Z,6012
2018-11-07T11:29:04.045Z,6088
2018-11-07T11:30:13.886Z,6684
2018-11-07T11:31:24.265Z,6952
2018-11-07T11:32:34.436Z,6752
2018-11-07T11:33:45.089Z,7144
2018-11-07T11:34:55.530Z,7132
2018-11-07T11:36:06.080Z,7360
2018-11-07T11:37:16.091Z,7120
2018-11-07T11:38:25.410Z,6940
2018-11-07T11:39:35.775Z,6992
2018-11-07T11:40:45.917Z,6560
2018-11-07T11:41:56.175Z,6860
2018-11-07T11:43:06.551Z,7032
2018-11-07T11:44:16.728Z,6188
2018-11-07T11:45:26.683Z,5888
2018-11-07T11:46:36.876Z,5772
2018-11-07T11:47:47.271Z,5724
2018-11-07T11:48:57.274Z,6292
2018-11-07T11:50:08.264Z,6416
2018-11-07T11:51:19.081Z,6040
2018-11-07T11:52:29.238Z,5476
2018-11-07T11:53:39.117Z,6068
2018-11-07T11:54:49.435Z,5908
2018-11-07T11:55:59.540Z,5904
2018-11-07T11:57:09.633Z,5984
2018-11-07T11:58:19.710Z,6008
2018-11-07T11:59:31.011Z,6004
2018-11-07T12:00:41.987Z,6068
2018-11-07T12:01:52.093Z,6084
2018-11-07T12:03:01.662Z,6372
2018-11-07T12:04:11.808Z,6364
2018-11-07T12:05:22.113Z,5768
2018-11-07T12:06:32.241Z,5592
2018-11-07T12:07:42.472Z,5668
2018-11-07T12:08:53.259Z,6120
2018-11-07T12:10:05.989Z,6180
2018-11-07T12:11:15.809Z,6032
2018-11-07T12:12:25.661Z,5764
2018-11-07T12:13:35.975Z,6040
2018-11-07T12:14:46.117Z,6380
2018-11-07T12:15:55.680Z,6524
2018-11-07T12:17:05.450Z,6652
2018-11-07T12:18:15.547Z,6896
2018-11-07T12:19:25.381Z,6756
2018-11-07T12:20:35.465Z,6660
2018-11-07T12:21:45.542Z,6448
2018-11-07T12:22:55.120Z,6124
2018-11-07T12:24:04.688Z,6076
2018-11-07T12:25:14.503Z,6240
2018-11-07T12:26:24.594Z,6056
2018-11-07T12:27:34.431Z,5608
2018-11-07T12:28:44.595Z,6016
2018-11-07T12:29:54.686Z,6280
2018-11-07T12:31:04.520Z,5980
2018-11-07T12:32:14.352Z,6048
2018-11-07T12:33:24.500Z,5480
2018-11-07T12:34:34.330Z,5088
2018-11-07T12:35:44.189Z,4728
2018-11-07T12:36:54.017Z,4876
2018-11-07T12:38:03.584Z,5208
2018-11-07T12:39:13.879Z,5008
2018-11-07T12:40:23.991Z,5100
2018-11-07T12:41:34.074Z,5192
2018-11-07T12:42:44.131Z,5024
2018-11-07T12:43:54.414Z,5052
2018-11-07T12:45:04.518Z,5232
2018-11-07T12:46:14.713Z,5136
2018-11-07T12:47:24.789Z,5044
2018-11-07T12:48:34.880Z,5088
2018-11-07T12:49:45.479Z,4912
2018-11-07T12:50:55.843Z,4924
2018-11-07T12:52:05.944Z,4964
2018-11-07T12:53:16.055Z,5140
2018-11-07T12:54:25.679Z,5260
2018-11-07T12:55:35.754Z,4868
2018-11-07T12:56:45.860Z,5208
2018-11-07T12:57:56.697Z,5088
2018-11-07T12:59:07.179Z,4968
2018-11-07T13:00:17.394Z,4972
2018-11-07T13:01:27.232Z,5128
2018-11-07T13:02:37.047Z,5244
2018-11-07T13:03:47.292Z,5180
2018-11-07T13:04:57.370Z,4984
2018-11-07T13:06:07.563Z,4800
2018-11-07T13:07:17.119Z,4740
2018-11-07T13:08:26.950Z,4808
2018-11-07T13:09:36.794Z,4724
2018-11-07T13:10:46.631Z,4436
2018-11-07T13:11:56.498Z,4324
2018-11-07T13:13:06.340Z,4260
2018-11-07T13:14:16.485Z,4316
2018-11-07T13:15:26.570Z,3944
2018-11-07T13:16:36.787Z,4092
2018-11-07T13:17:46.826Z,4288
2018-11-07T13:18:56.461Z,3896
2018-11-07T13:20:06.325Z,3684
2018-11-07T13:21:16.215Z,3548
2018-11-07T13:22:26.646Z,3460
2018-11-07T13:23:37.014Z,3648
2018-11-07T13:24:46.838Z,3500
2018-11-07T13:25:56.793Z,3588
2018-11-07T13:27:07.086Z,3672
2018-11-07T13:28:17.676Z,3440
2018-11-07T13:29:27.908Z,3560
2018-11-07T13:30:38.007Z,3472
2018-11-07T13:31:48.096Z,3420
2018-11-07T13:32:57.664Z,3324
2018-11-07T13:34:07.797Z,3284
2018-11-07T13:35:17.977Z,3312
2018-11-07T13:36:28.076Z,3176
2018-11-07T13:37:40.696Z,3120
2018-11-07T13:38:52.568Z,3024
2018-11-07T13:40:03.570Z,2876
2018-11-07T13:41:13.994Z,2772
2018-11-07T13:42:24.078Z,2600
2018-11-07T13:43:33.934Z,2464
2018-11-07T13:44:44.026Z,2432
2018-11-07T13:45:54.138Z,2644
2018-11-07T13:47:04.140Z,2536
2018-11-07T13:48:14.491Z,2488
2018-11-07T13:49:23.829Z,2444
2018-11-07T13:50:33.674Z,2580
2018-11-07T13:51:43.772Z,2592
2018-11-07T13:52:54.003Z,2636
2018-11-07T13:54:04.180Z,2580
2018-11-07T13:55:14.516Z,2636
2018-11-07T13:56:24.348Z,2592
2018-11-07T13:57:33.658Z,2376
2018-11-07T13:58:43.496Z,2364
2018-11-07T13:59:53.311Z,2340
2018-11-07T14:01:03.454Z,2324
2018-11-07T14:02:13.030Z,2160
2018-11-07T14:03:22.645Z,2148
2018-11-07T14:04:31.957Z,1972
2018-11-07T14:05:43.056Z,1892
2018-11-07T14:06:53.295Z,1832
2018-11-07T14:08:05.585Z,1768
2018-11-07T14:09:15.417Z,1712
2018-11-07T14:10:25.245Z,1680
2018-11-07T14:11:35.085Z,1648
2018-11-07T14:12:44.765Z,1644
2018-11-07T14:13:54.056Z,1632
2018-11-07T14:15:04.389Z,1564
2018-11-07T14:16:15.206Z,1512
2018-11-07T14:17:24.757Z,1484
2018-11-07T14:18:34.589Z,1484
2018-11-07T14:19:44.647Z,1508
2018-11-07T14:20:54.732Z,1548
2018-11-07T14:22:04.590Z,1500
2018-11-07T14:23:14.433Z,1516
2018-11-07T14:24:24.524Z,1492
2018-11-07T14:25:34.388Z,1408
2018-11-07T14:26:44.788Z,1352
2018-11-07T14:27:56.047Z,1296
2018-11-07T14:29:06.812Z,1236
2018-11-07T14:30:16.729Z,1172
2018-11-07T14:31:26.886Z,1124
2018-11-07T14:32:36.729Z,1084
2018-11-07T14:33:46.583Z,1056
2018-11-07T14:34:56.398Z,1032
2018-11-07T14:36:06.302Z,1012
2018-11-07T14:37:16.138Z,1000
2018-11-07T14:38:26.123Z,976
2018-11-07T14:39:35.673Z,952
2018-11-07T14:40:45.745Z,924
2018-11-07T14:41:55.893Z,892
2018-11-07T14:43:05.986Z,856
2018-11-07T14:44:16.089Z,824
2018-11-07T14:45:25.409Z,792
2018-11-07T14:46:36.046Z,764
2018-11-07T14:47:46.316Z,736
2018-11-07T14:48:56.274Z,712
2018-11-07T14:50:08.141Z,684
2018-11-07T14:51:17.715Z,652
2018-11-07T14:52:27.860Z,624
2018-11-07T14:53:38.344Z,592
2018-11-07T14:54:48.619Z,564
2018-11-07T14:55:58.740Z,532
2018-11-07T14:57:09.088Z,500
2018-11-07T14:58:18.966Z,472
2018-11-07T14:59:29.081Z,444
2018-11-07T15:00:38.901Z,416
2018-11-07T15:01:48.219Z,392
2018-11-07T15:02:58.532Z,364
2018-11-07T15:04:08.363Z,340
2018-11-07T15:05:18.317Z,316
2018-11-07T15:06:28.292Z,296
2018-11-07T15:07:38.395Z,272
2018-11-07T15:08:48.397Z,252
2018-11-07T15:09:58.667Z,232
2018-11-07T15:11:10.696Z,216
2018-11-07T15:12:20.841Z,196
2018-11-07T15:13:30.651Z,180
2018-11-07T15:14:40.748Z,164
2018-11-07T15:15:50.577Z,152
2018-11-07T15:17:02.061Z,136
2018-11-07T15:18:11.606Z,124
2018-11-07T15:19:21.708Z,112
2018-11-07T15:20:31.834Z,100
2018-11-07T15:21:41.937Z,92
2018-11-07T15:22:52.118Z,80
2018-11-07T15:24:01.707Z,76
2018-11-07T15:25:12.220Z,68
2018-11-07T15:26:22.041Z,60
2018-11-07T15:27:32.090Z,56
2018-11-07T15:28:42.561Z,52
2018-11-07T15:29:52.425Z,48
2018-11-07T15:31:02.240Z,44
2018-11-07T15:32:12.371Z,40
2018-11-07T15:33:22.466Z,36
2018-11-07T15:34:32.279Z,32
2018-11-07T15:35:42.416Z,32
2018-11-07T15:36:52.202Z,28
2018-11-07T15:38:02.313Z,24
2018-11-07T15:39:12.151Z,20
2018-11-07T15:40:21.994Z,12
2018-11-07T15:41:32.088Z,12
2018-11-07T15:42:42.260Z,8
2018-11-07T15:43:52.103Z,8
2018-11-07T15:45:01.950Z,8
2018-11-07T15:46:12.151Z,4
2018-11-07T15:47:21.719Z,4
2018-11-07T15:48:32.037Z,0
2018-11-07T15:49:42.443Z,4
2018-11-07T15:50:52.273Z,0
2018-11-07T15:52:02.997Z,0
2018-11-07T15:53:12.925Z,4
2018-11-07T15:54:23.020Z,0
2018-11-07T15:55:33.217Z,0
2018-11-07T15:56:43.051Z,0
2018-11-07T15:57:53.190Z,0
2018-11-07T15:59:05.976Z,0
2018-11-07T16:00:17.051Z,0
2018-11-07T16:01:27.144Z,0
2018-11-07T16:02:36.980Z,0
2018-11-07T16:03:46.871Z,0
2018-11-07T16:04:56.958Z,0
2018-11-07T16:06:06.656Z,0
2018-11-07T16:07:16.519Z,0
2018-11-07T16:08:25.824Z,0
2018-11-07T16:09:35.715Z,0
2018-11-07T16:10:45.261Z,0
2018-11-07T16:11:55.096Z,0
2018-11-07T16:13:05.360Z,0
2018-11-07T16:14:15.315Z,0
2018-11-07T16:15:26.176Z,0
2018-11-07T16:16:36.149Z,0
2018-11-07T16:17:45.740Z,0
2018-11-07T16:18:55.865Z,0
2018-11-07T16:20:05.978Z,0
2018-11-07T16:21:15.833Z,0
2018-11-07T16:22:25.972Z,0
2018-11-07T16:23:35.635Z,0
2018-11-07T16:24:45.484Z,0
2018-11-07T16:25:55.925Z,0
2018-11-07T16:27:07.196Z,0
2018-11-07T16:28:16.782Z,0
2018-11-07T16:29:26.618Z,0
2018-11-07T16:30:36.454Z,0
2018-11-07T16:31:46.132Z,0
2018-11-07T16:32:56.175Z,0
2018-11-07T16:34:06.289Z,0
2018-11-07T16:35:16.402Z,0
2018-11-07T16:36:26.254Z,0
2018-11-07T16:37:35.822Z,0
2018-11-07T16:38:46.179Z,0
2018-11-07T16:39:55.812Z,0
2018-11-07T16:41:06.331Z,0
2018-11-07T16:42:15.844Z,0
2018-11-07T16:43:25.940Z,0
2018-11-07T16:44:35.561Z,0
2018-11-07T16:45:45.683Z,0
2018-11-07T16:46:56.011Z,0